sensor_id;sensor_type;location;lat;lon;timestamp;temperature;humidity
7254;DHT22;4060;49.186;9.226;2022-08-14T00:01:12;31.00;27.70
7254;DHT22;4060;49.186;9.226;2022-08-14T00:03:47;31.00;27.70
7254;DHT22;4060;49.186;9.226;2022-08-14T00:06:17;30.90;27.70
7254;DHT22;4060;49.186;9.226;2022-08-14T00:08:46;30.90;27.90
7254;DHT22;4060;49.186;9.226;2022-08-14T00:11:15;30.90;27.90
7254;DHT22;4060;49.186;9.226;2022-08-14T00:13:47;30.90;28.00
7254;DHT22;4060;49.186;9.226;2022-08-14T00:16:16;30.90;28.10
7254;DHT22;4060;49.186;9.226;2022-08-14T00:18:46;30.90;28.10
7254;DHT22;4060;49.186;9.226;2022-08-14T00:21:15;30.80;28.20
7254;DHT22;4060;49.186;9.226;2022-08-14T00:23:45;30.90;28.30
7254;DHT22;4060;49.186;9.226;2022-08-14T00:26:15;30.80;28.30
7254;DHT22;4060;49.186;9.226;2022-08-14T00:28:47;30.80;28.40
7254;DHT22;4060;49.186;9.226;2022-08-14T00:31:17;30.80;28.40
7254;DHT22;4060;49.186;9.226;2022-08-14T00:33:48;30.80;28.50
7254;DHT22;4060;49.186;9.226;2022-08-14T00:36:17;30.70;28.50
7254;DHT22;4060;49.186;9.226;2022-08-14T00:38:47;30.70;28.60
7254;DHT22;4060;49.186;9.226;2022-08-14T00:41:16;30.70;28.70
7254;DHT22;4060;49.186;9.226;2022-08-14T00:43:48;30.70;28.80
7254;DHT22;4060;49.186;9.226;2022-08-14T00:46:18;30.60;28.90
7254;DHT22;4060;49.186;9.226;2022-08-14T00:48:47;30.60;29.10
7254;DHT22;4060;49.186;9.226;2022-08-14T00:51:16;30.60;29.00
7254;DHT22;4060;49.186;9.226;2022-08-14T00:53:47;30.60;29.10
7254;DHT22;4060;49.186;9.226;2022-08-14T00:56:17;30.60;29.20
7254;DHT22;4060;49.186;9.226;2022-08-14T00:58:49;30.50;29.30
7254;DHT22;4060;49.186;9.226;2022-08-14T01:01:20;30.50;29.90
7254;DHT22;4060;49.186;9.226;2022-08-14T01:03:52;30.50;29.60
7254;DHT22;4060;49.186;9.226;2022-08-14T01:06:22;30.50;29.90
7254;DHT22;4060;49.186;9.226;2022-08-14T01:08:51;30.50;29.90
7254;DHT22;4060;49.186;9.226;2022-08-14T01:11:21;30.40;30.00
7254;DHT22;4060;49.186;9.226;2022-08-14T01:13:53;30.40;30.10
7254;DHT22;4060;49.186;9.226;2022-08-14T01:16:28;30.40;30.30
7254;DHT22;4060;49.186;9.226;2022-08-14T01:18:58;30.40;30.30
7254;DHT22;4060;49.186;9.226;2022-08-14T01:21:46;30.40;30.50
7254;DHT22;4060;49.186;9.226;2022-08-14T01:24:15;30.30;30.50
7254;DHT22;4060;49.186;9.226;2022-08-14T01:26:46;30.30;30.60
7254;DHT22;4060;49.186;9.226;2022-08-14T01:29:15;30.30;30.60
7254;DHT22;4060;49.186;9.226;2022-08-14T01:31:45;30.30;30.70
7254;DHT22;4060;49.186;9.226;2022-08-14T01:34:14;30.30;30.80
7254;DHT22;4060;49.186;9.226;2022-08-14T01:36:45;30.20;30.80
7254;DHT22;4060;49.186;9.226;2022-08-14T01:39:17;30.30;30.90
7254;DHT22;4060;49.186;9.226;2022-08-14T01:41:47;30.20;30.90
7254;DHT22;4060;49.186;9.226;2022-08-14T01:44:23;30.20;30.90
7254;DHT22;4060;49.186;9.226;2022-08-14T01:46:56;30.20;31.00
7254;DHT22;4060;49.186;9.226;2022-08-14T01:49:25;30.20;31.00
7254;DHT22;4060;49.186;9.226;2022-08-14T01:51:58;30.20;31.10
7254;DHT22;4060;49.186;9.226;2022-08-14T01:54:28;30.10;31.10
7254;DHT22;4060;49.186;9.226;2022-08-14T01:56:57;30.10;31.10
7254;DHT22;4060;49.186;9.226;2022-08-14T01:59:28;30.10;31.10
7254;DHT22;4060;49.186;9.226;2022-08-14T02:01:59;30.10;31.20
7254;DHT22;4060;49.186;9.226;2022-08-14T02:04:32;30.10;31.40
7254;DHT22;4060;49.186;9.226;2022-08-14T02:07:04;30.00;31.30
7254;DHT22;4060;49.186;9.226;2022-08-14T02:09:33;30.00;31.40
7254;DHT22;4060;49.186;9.226;2022-08-14T02:12:06;30.00;31.40
7254;DHT22;4060;49.186;9.226;2022-08-14T02:14:36;30.00;31.50
7254;DHT22;4060;49.186;9.226;2022-08-14T02:17:06;30.00;31.50
7254;DHT22;4060;49.186;9.226;2022-08-14T02:19:35;30.00;31.50
7254;DHT22;4060;49.186;9.226;2022-08-14T02:22:07;29.90;31.50
7254;DHT22;4060;49.186;9.226;2022-08-14T02:24:37;29.90;31.60
7254;DHT22;4060;49.186;9.226;2022-08-14T02:27:06;29.90;31.70
7254;DHT22;4060;49.186;9.226;2022-08-14T02:29:37;29.80;31.70
7254;DHT22;4060;49.186;9.226;2022-08-14T02:32:06;29.80;31.70
7254;DHT22;4060;49.186;9.226;2022-08-14T02:34:37;29.80;31.90
7254;DHT22;4060;49.186;9.226;2022-08-14T02:37:09;29.80;31.90
7254;DHT22;4060;49.186;9.226;2022-08-14T02:39:41;29.80;32.00
7254;DHT22;4060;49.186;9.226;2022-08-14T02:42:12;29.70;32.00
7254;DHT22;4060;49.186;9.226;2022-08-14T02:44:43;29.70;32.10
7254;DHT22;4060;49.186;9.226;2022-08-14T02:47:13;29.70;32.20
7254;DHT22;4060;49.186;9.226;2022-08-14T02:49:44;29.70;32.30
7254;DHT22;4060;49.186;9.226;2022-08-14T02:52:15;29.70;32.40
7254;DHT22;4060;49.186;9.226;2022-08-14T02:54:45;29.60;32.40
7254;DHT22;4060;49.186;9.226;2022-08-14T02:57:15;29.60;32.50
7254;DHT22;4060;49.186;9.226;2022-08-14T02:59:45;29.60;32.50
7254;DHT22;4060;49.186;9.226;2022-08-14T03:02:14;29.60;32.60
7254;DHT22;4060;49.186;9.226;2022-08-14T03:04:44;29.50;32.60
7254;DHT22;4060;49.186;9.226;2022-08-14T03:07:16;29.50;32.70
7254;DHT22;4060;49.186;9.226;2022-08-14T03:09:45;29.50;32.90
7254;DHT22;4060;49.186;9.226;2022-08-14T03:12:15;29.50;33.40
7254;DHT22;4060;49.186;9.226;2022-08-14T03:14:44;29.50;33.00
7254;DHT22;4060;49.186;9.226;2022-08-14T03:17:15;29.40;33.00
7254;DHT22;4060;49.186;9.226;2022-08-14T03:19:44;29.40;33.10
7254;DHT22;4060;49.186;9.226;2022-08-14T03:22:16;29.40;33.10
7254;DHT22;4060;49.186;9.226;2022-08-14T03:24:45;29.40;33.20
7254;DHT22;4060;49.186;9.226;2022-08-14T03:27:15;29.40;33.30
7254;DHT22;4060;49.186;9.226;2022-08-14T03:29:44;29.30;33.30
7254;DHT22;4060;49.186;9.226;2022-08-14T03:32:14;29.30;33.30
7254;DHT22;4060;49.186;9.226;2022-08-14T03:34:44;29.30;33.30
7254;DHT22;4060;49.186;9.226;2022-08-14T03:37:16;29.30;33.40
7254;DHT22;4060;49.186;9.226;2022-08-14T03:39:45;29.20;33.50
7254;DHT22;4060;49.186;9.226;2022-08-14T03:42:15;29.20;33.50
7254;DHT22;4060;49.186;9.226;2022-08-14T03:44:45;29.20;33.60
7254;DHT22;4060;49.186;9.226;2022-08-14T03:47:17;29.20;33.60
7254;DHT22;4060;49.186;9.226;2022-08-14T03:49:46;29.10;33.60
7254;DHT22;4060;49.186;9.226;2022-08-14T03:52:18;29.10;33.70
7254;DHT22;4060;49.186;9.226;2022-08-14T03:54:47;29.10;33.80
7254;DHT22;4060;49.186;9.226;2022-08-14T03:57:16;29.10;33.80
7254;DHT22;4060;49.186;9.226;2022-08-14T03:59:46;29.10;33.80
7254;DHT22;4060;49.186;9.226;2022-08-14T04:02:15;29.00;33.80
7254;DHT22;4060;49.186;9.226;2022-08-14T04:04:44;29.00;33.80
7254;DHT22;4060;49.186;9.226;2022-08-14T04:07:16;29.00;33.90
7254;DHT22;4060;49.186;9.226;2022-08-14T04:09:46;29.00;34.00
7254;DHT22;4060;49.186;9.226;2022-08-14T04:12:16;28.90;33.90
7254;DHT22;4060;49.186;9.226;2022-08-14T04:14:48;28.90;34.00
7254;DHT22;4060;49.186;9.226;2022-08-14T04:17:18;28.90;34.10
7254;DHT22;4060;49.186;9.226;2022-08-14T04:19:48;28.90;34.10
7254;DHT22;4060;49.186;9.226;2022-08-14T04:22:20;28.80;34.20
7254;DHT22;4060;49.186;9.226;2022-08-14T04:24:49;28.80;34.30
7254;DHT22;4060;49.186;9.226;2022-08-14T04:27:19;28.80;34.30
7254;DHT22;4060;49.186;9.226;2022-08-14T04:29:49;28.80;34.40
7254;DHT22;4060;49.186;9.226;2022-08-14T04:32:19;28.80;34.40
7254;DHT22;4060;49.186;9.226;2022-08-14T04:34:48;28.80;34.50
7254;DHT22;4060;49.186;9.226;2022-08-14T04:37:23;28.70;34.50
7254;DHT22;4060;49.186;9.226;2022-08-14T04:40:09;28.70;34.60
7254;DHT22;4060;49.186;9.226;2022-08-14T04:42:55;28.70;34.60
7254;DHT22;4060;49.186;9.226;2022-08-14T04:45:42;28.60;34.60
7254;DHT22;4060;49.186;9.226;2022-08-14T04:48:12;28.60;34.70
7254;DHT22;4060;49.186;9.226;2022-08-14T04:50:43;28.60;34.70
7254;DHT22;4060;49.186;9.226;2022-08-14T04:53:17;28.60;34.80
7254;DHT22;4060;49.186;9.226;2022-08-14T04:55:48;28.60;34.80
7254;DHT22;4060;49.186;9.226;2022-08-14T04:58:18;28.60;34.70
7254;DHT22;4060;49.186;9.226;2022-08-14T05:00:48;28.50;34.70
7254;DHT22;4060;49.186;9.226;2022-08-14T05:03:18;28.50;34.70
7254;DHT22;4060;49.186;9.226;2022-08-14T05:05:48;28.50;34.70
7254;DHT22;4060;49.186;9.226;2022-08-14T05:08:19;28.50;34.80
7254;DHT22;4060;49.186;9.226;2022-08-14T05:10:51;28.50;34.90
7254;DHT22;4060;49.186;9.226;2022-08-14T05:13:23;28.50;34.90
7254;DHT22;4060;49.186;9.226;2022-08-14T05:15:54;28.50;34.90
7254;DHT22;4060;49.186;9.226;2022-08-14T05:18:25;28.50;34.90
7254;DHT22;4060;49.186;9.226;2022-08-14T05:20:55;28.50;35.00
7254;DHT22;4060;49.186;9.226;2022-08-14T05:23:28;28.40;35.50
7254;DHT22;4060;49.186;9.226;2022-08-14T05:25:59;28.50;35.20
7254;DHT22;4060;49.186;9.226;2022-08-14T05:28:31;28.40;35.20
7254;DHT22;4060;49.186;9.226;2022-08-14T05:31:03;28.40;35.30
7254;DHT22;4060;49.186;9.226;2022-08-14T05:33:34;28.40;35.20
7254;DHT22;4060;49.186;9.226;2022-08-14T05:36:05;28.40;35.30
7254;DHT22;4060;49.186;9.226;2022-08-14T05:38:37;28.40;35.40
7254;DHT22;4060;49.186;9.226;2022-08-14T05:41:08;28.40;35.50
7254;DHT22;4060;49.186;9.226;2022-08-14T05:43:38;28.50;35.60
7254;DHT22;4060;49.186;9.226;2022-08-14T05:46:10;28.50;35.70
7254;DHT22;4060;49.186;9.226;2022-08-14T05:48:41;28.50;35.80
7254;DHT22;4060;49.186;9.226;2022-08-14T05:51:10;28.40;35.80
7254;DHT22;4060;49.186;9.226;2022-08-14T05:53:42;28.50;35.90
7254;DHT22;4060;49.186;9.226;2022-08-14T05:56:11;28.50;35.90
7254;DHT22;4060;49.186;9.226;2022-08-14T05:58:41;28.50;35.90
7254;DHT22;4060;49.186;9.226;2022-08-14T06:01:10;28.50;36.00
7254;DHT22;4060;49.186;9.226;2022-08-14T06:03:39;28.50;36.00
7254;DHT22;4060;49.186;9.226;2022-08-14T06:06:08;28.50;36.00
7254;DHT22;4060;49.186;9.226;2022-08-14T06:08:37;28.50;36.00
7254;DHT22;4060;49.186;9.226;2022-08-14T06:11:09;28.60;36.10
7254;DHT22;4060;49.186;9.226;2022-08-14T06:13:39;28.60;36.20
7254;DHT22;4060;49.186;9.226;2022-08-14T06:16:09;28.60;36.20
7254;DHT22;4060;49.186;9.226;2022-08-14T06:18:38;28.60;36.20
7254;DHT22;4060;49.186;9.226;2022-08-14T06:21:08;28.70;36.30
7254;DHT22;4060;49.186;9.226;2022-08-14T06:23:37;28.70;36.30
7254;DHT22;4060;49.186;9.226;2022-08-14T06:26:09;28.70;36.40
7254;DHT22;4060;49.186;9.226;2022-08-14T06:28:38;28.70;36.40
7254;DHT22;4060;49.186;9.226;2022-08-14T06:31:08;28.80;36.50
7254;DHT22;4060;49.186;9.226;2022-08-14T06:33:38;28.80;36.50
7254;DHT22;4060;49.186;9.226;2022-08-14T06:36:08;28.80;36.50
7254;DHT22;4060;49.186;9.226;2022-08-14T06:38:37;28.80;36.50
7254;DHT22;4060;49.186;9.226;2022-08-14T06:41:08;28.80;36.50
7254;DHT22;4060;49.186;9.226;2022-08-14T06:43:37;28.80;36.50
7254;DHT22;4060;49.186;9.226;2022-08-14T06:46:07;28.80;36.50
7254;DHT22;4060;49.186;9.226;2022-08-14T06:48:36;28.90;36.50
7254;DHT22;4060;49.186;9.226;2022-08-14T06:51:05;28.90;36.60
7254;DHT22;4060;49.186;9.226;2022-08-14T06:53:35;28.90;36.60
7254;DHT22;4060;49.186;9.226;2022-08-14T06:56:04;28.90;36.50
7254;DHT22;4060;49.186;9.226;2022-08-14T06:58:36;28.90;36.50
7254;DHT22;4060;49.186;9.226;2022-08-14T07:01:05;28.90;36.50
7254;DHT22;4060;49.186;9.226;2022-08-14T07:03:51;28.90;36.40
7254;DHT22;4060;49.186;9.226;2022-08-14T07:06:37;28.90;36.40
7254;DHT22;4060;49.186;9.226;2022-08-14T07:09:09;28.90;36.40
7254;DHT22;4060;49.186;9.226;2022-08-14T07:11:38;28.90;36.40
7254;DHT22;4060;49.186;9.226;2022-08-14T07:14:10;28.90;36.40
7254;DHT22;4060;49.186;9.226;2022-08-14T07:16:40;28.90;36.40
7254;DHT22;4060;49.186;9.226;2022-08-14T07:19:09;28.90;36.40
7254;DHT22;4060;49.186;9.226;2022-08-14T07:21:39;29.00;36.40
7254;DHT22;4060;49.186;9.226;2022-08-14T07:24:08;28.90;36.30
7254;DHT22;4060;49.186;9.226;2022-08-14T07:26:38;28.90;36.40
7254;DHT22;4060;49.186;9.226;2022-08-14T07:29:09;28.90;36.40
7254;DHT22;4060;49.186;9.226;2022-08-14T07:31:39;28.90;36.30
7254;DHT22;4060;49.186;9.226;2022-08-14T07:34:08;28.90;36.30
7254;DHT22;4060;49.186;9.226;2022-08-14T07:36:37;28.90;36.40
7254;DHT22;4060;49.186;9.226;2022-08-14T07:39:07;28.90;36.30
7254;DHT22;4060;49.186;9.226;2022-08-14T07:41:36;28.90;36.40
7254;DHT22;4060;49.186;9.226;2022-08-14T07:44:06;28.90;36.50
7254;DHT22;4060;49.186;9.226;2022-08-14T07:46:39;28.90;36.50
7254;DHT22;4060;49.186;9.226;2022-08-14T07:49:08;28.90;36.50
7254;DHT22;4060;49.186;9.226;2022-08-14T07:51:38;29.00;36.50
7254;DHT22;4060;49.186;9.226;2022-08-14T07:54:08;29.00;36.50
7254;DHT22;4060;49.186;9.226;2022-08-14T07:56:38;29.00;36.50
7254;DHT22;4060;49.186;9.226;2022-08-14T07:59:07;29.00;36.40
7254;DHT22;4060;49.186;9.226;2022-08-14T08:01:38;29.10;36.40
7254;DHT22;4060;49.186;9.226;2022-08-14T08:04:08;29.10;36.40
7254;DHT22;4060;49.186;9.226;2022-08-14T08:06:38;29.10;36.40
7254;DHT22;4060;49.186;9.226;2022-08-14T08:09:09;29.10;36.30
7254;DHT22;4060;49.186;9.226;2022-08-14T08:11:40;29.10;36.10
7254;DHT22;4060;49.186;9.226;2022-08-14T08:14:09;29.20;36.10
7254;DHT22;4060;49.186;9.226;2022-08-14T08:16:41;29.20;36.10
7254;DHT22;4060;49.186;9.226;2022-08-14T08:19:10;29.20;36.00
7254;DHT22;4060;49.186;9.226;2022-08-14T08:21:46;29.20;36.00
7254;DHT22;4060;49.186;9.226;2022-08-14T08:24:15;29.20;36.00
7254;DHT22;4060;49.186;9.226;2022-08-14T08:26:45;29.30;36.00
7254;DHT22;4060;49.186;9.226;2022-08-14T08:29:20;29.30;35.90
7254;DHT22;4060;49.186;9.226;2022-08-14T08:31:52;29.30;35.90
7254;DHT22;4060;49.186;9.226;2022-08-14T08:34:22;29.30;35.80
7254;DHT22;4060;49.186;9.226;2022-08-14T08:36:51;29.40;35.90
7254;DHT22;4060;49.186;9.226;2022-08-14T08:39:20;29.40;35.90
7254;DHT22;4060;49.186;9.226;2022-08-14T08:41:50;29.40;35.90
7254;DHT22;4060;49.186;9.226;2022-08-14T08:44:19;29.40;35.90
7254;DHT22;4060;49.186;9.226;2022-08-14T08:46:59;29.40;35.90
7254;DHT22;4060;49.186;9.226;2022-08-14T08:49:41;29.50;35.90
7254;DHT22;4060;49.186;9.226;2022-08-14T08:52:10;29.50;35.80
7254;DHT22;4060;49.186;9.226;2022-08-14T08:54:39;29.50;35.70
7254;DHT22;4060;49.186;9.226;2022-08-14T08:57:11;29.60;35.60
7254;DHT22;4060;49.186;9.226;2022-08-14T08:59:40;29.60;35.50
7254;DHT22;4060;49.186;9.226;2022-08-14T09:02:11;29.60;35.50
7254;DHT22;4060;49.186;9.226;2022-08-14T09:04:42;29.60;35.40
7254;DHT22;4060;49.186;9.226;2022-08-14T09:07:16;29.60;35.90
7254;DHT22;4060;49.186;9.226;2022-08-14T09:09:46;29.70;35.30
7254;DHT22;4060;49.186;9.226;2022-08-14T09:12:22;29.70;35.20
7254;DHT22;4060;49.186;9.226;2022-08-14T09:14:51;29.70;35.00
7254;DHT22;4060;49.186;9.226;2022-08-14T09:17:25;29.80;34.90
7254;DHT22;4060;49.186;9.226;2022-08-14T09:19:54;29.80;34.80
7254;DHT22;4060;49.186;9.226;2022-08-14T09:22:24;29.80;34.60
7254;DHT22;4060;49.186;9.226;2022-08-14T09:24:55;29.80;34.50
7254;DHT22;4060;49.186;9.226;2022-08-14T09:27:24;29.90;34.40
7254;DHT22;4060;49.186;9.226;2022-08-14T09:29:53;29.90;34.20
7254;DHT22;4060;49.186;9.226;2022-08-14T09:32:34;29.90;34.00
7254;DHT22;4060;49.186;9.226;2022-08-14T09:35:14;29.90;33.80
7254;DHT22;4060;49.186;9.226;2022-08-14T09:37:54;29.90;33.70
7254;DHT22;4060;49.186;9.226;2022-08-14T09:40:41;30.00;33.40
7254;DHT22;4060;49.186;9.226;2022-08-14T09:43:26;30.00;33.20
7254;DHT22;4060;49.186;9.226;2022-08-14T09:45:59;30.10;33.00
7254;DHT22;4060;49.186;9.226;2022-08-14T09:48:37;30.10;32.80
7254;DHT22;4060;49.186;9.226;2022-08-14T09:51:08;30.10;32.60
7254;DHT22;4060;49.186;9.226;2022-08-14T09:54:00;30.10;32.30
7254;DHT22;4060;49.186;9.226;2022-08-14T09:56:43;30.10;32.00
7254;DHT22;4060;49.186;9.226;2022-08-14T09:59:15;30.20;31.90
7254;DHT22;4060;49.186;9.226;2022-08-14T10:01:49;30.20;31.80
7254;DHT22;4060;49.186;9.226;2022-08-14T10:04:22;30.20;31.70
7254;DHT22;4060;49.186;9.226;2022-08-14T10:06:52;30.20;31.40
7254;DHT22;4060;49.186;9.226;2022-08-14T10:09:21;30.30;31.40
7254;DHT22;4060;49.186;9.226;2022-08-14T10:11:55;30.30;31.30
7254;DHT22;4060;49.186;9.226;2022-08-14T10:14:28;30.30;31.10
7254;DHT22;4060;49.186;9.226;2022-08-14T10:16:59;30.30;31.10
7254;DHT22;4060;49.186;9.226;2022-08-14T10:19:32;30.40;31.10
7254;DHT22;4060;49.186;9.226;2022-08-14T10:22:03;30.40;30.90
7254;DHT22;4060;49.186;9.226;2022-08-14T10:24:36;30.40;30.80
7254;DHT22;4060;49.186;9.226;2022-08-14T10:27:15;30.50;30.70
7254;DHT22;4060;49.186;9.226;2022-08-14T10:29:48;30.50;30.50
7254;DHT22;4060;49.186;9.226;2022-08-14T10:32:17;30.50;30.50
7254;DHT22;4060;49.186;9.226;2022-08-14T10:34:50;30.60;30.40
7254;DHT22;4060;49.186;9.226;2022-08-14T10:37:19;30.60;30.30
7254;DHT22;4060;49.186;9.226;2022-08-14T10:39:59;30.60;30.20
7254;DHT22;4060;49.186;9.226;2022-08-14T10:42:35;30.70;30.10
7254;DHT22;4060;49.186;9.226;2022-08-14T10:45:17;30.70;30.00
7254;DHT22;4060;49.186;9.226;2022-08-14T10:47:47;30.70;30.00
7254;DHT22;4060;49.186;9.226;2022-08-14T10:50:29;30.80;30.00
7254;DHT22;4060;49.186;9.226;2022-08-14T10:52:59;30.80;29.80
7254;DHT22;4060;49.186;9.226;2022-08-14T10:55:33;30.80;29.80
7254;DHT22;4060;49.186;9.226;2022-08-14T10:58:06;30.80;29.80
7254;DHT22;4060;49.186;9.226;2022-08-14T11:00:39;30.90;29.70
7254;DHT22;4060;49.186;9.226;2022-08-14T11:03:10;30.90;29.70
7254;DHT22;4060;49.186;9.226;2022-08-14T11:05:44;30.90;29.60
7254;DHT22;4060;49.186;9.226;2022-08-14T11:08:16;31.00;29.60
7254;DHT22;4060;49.186;9.226;2022-08-14T11:10:47;31.00;29.60
7254;DHT22;4060;49.186;9.226;2022-08-14T11:13:17;31.00;29.60
7254;DHT22;4060;49.186;9.226;2022-08-14T11:15:47;31.00;29.50
7254;DHT22;4060;49.186;9.226;2022-08-14T11:18:17;31.10;29.50
7254;DHT22;4060;49.186;9.226;2022-08-14T11:20:52;31.10;29.50
7254;DHT22;4060;49.186;9.226;2022-08-14T11:23:26;31.10;29.40
7254;DHT22;4060;49.186;9.226;2022-08-14T11:25:57;31.20;29.40
7254;DHT22;4060;49.186;9.226;2022-08-14T11:28:31;31.20;29.40
7254;DHT22;4060;49.186;9.226;2022-08-14T11:31:02;31.20;29.40
7254;DHT22;4060;49.186;9.226;2022-08-14T11:33:32;31.30;29.30
7254;DHT22;4060;49.186;9.226;2022-08-14T11:36:08;31.30;29.30
7254;DHT22;4060;49.186;9.226;2022-08-14T11:38:38;31.30;29.20
7254;DHT22;4060;49.186;9.226;2022-08-14T11:41:09;31.40;29.20
7254;DHT22;4060;49.186;9.226;2022-08-14T11:43:40;31.40;29.10
7254;DHT22;4060;49.186;9.226;2022-08-14T11:46:10;31.40;29.10
7254;DHT22;4060;49.186;9.226;2022-08-14T11:48:47;31.50;29.10
7254;DHT22;4060;49.186;9.226;2022-08-14T11:51:20;31.50;29.00
7254;DHT22;4060;49.186;9.226;2022-08-14T11:53:54;31.60;29.10
7254;DHT22;4060;49.186;9.226;2022-08-14T11:56:24;31.60;29.00
7254;DHT22;4060;49.186;9.226;2022-08-14T11:58:54;31.70;28.90
7254;DHT22;4060;49.186;9.226;2022-08-14T12:01:27;31.70;28.80
7254;DHT22;4060;49.186;9.226;2022-08-14T12:04:10;31.70;28.70
7254;DHT22;4060;49.186;9.226;2022-08-14T12:06:49;31.80;28.60
7254;DHT22;4060;49.186;9.226;2022-08-14T12:09:30;31.80;28.50
7254;DHT22;4060;49.186;9.226;2022-08-14T12:12:12;31.80;28.40
7254;DHT22;4060;49.186;9.226;2022-08-14T12:14:49;31.90;28.50
7254;DHT22;4060;49.186;9.226;2022-08-14T12:17:20;31.90;28.20
7254;DHT22;4060;49.186;9.226;2022-08-14T12:19:50;31.90;28.20
7254;DHT22;4060;49.186;9.226;2022-08-14T12:22:32;32.00;28.50
7254;DHT22;4060;49.186;9.226;2022-08-14T12:25:02;32.00;28.10
7254;DHT22;4060;49.186;9.226;2022-08-14T12:27:37;32.10;28.00
7254;DHT22;4060;49.186;9.226;2022-08-14T12:30:11;32.10;27.90
7254;DHT22;4060;49.186;9.226;2022-08-14T12:32:42;32.10;27.80
7254;DHT22;4060;49.186;9.226;2022-08-14T12:35:13;32.20;27.80
7254;DHT22;4060;49.186;9.226;2022-08-14T12:37:49;32.20;27.80
7254;DHT22;4060;49.186;9.226;2022-08-14T12:40:20;32.30;27.70
7254;DHT22;4060;49.186;9.226;2022-08-14T12:42:51;32.30;27.70
7254;DHT22;4060;49.186;9.226;2022-08-14T12:45:30;32.30;27.60
7254;DHT22;4060;49.186;9.226;2022-08-14T12:48:01;32.40;27.50
7254;DHT22;4060;49.186;9.226;2022-08-14T12:50:38;32.40;27.50
7254;DHT22;4060;49.186;9.226;2022-08-14T12:53:10;32.50;27.40
7254;DHT22;4060;49.186;9.226;2022-08-14T12:55:41;32.50;27.40
7254;DHT22;4060;49.186;9.226;2022-08-14T12:58:11;32.50;27.40
7254;DHT22;4060;49.186;9.226;2022-08-14T13:00:48;32.60;27.30
7254;DHT22;4060;49.186;9.226;2022-08-14T13:03:29;32.60;27.10
7254;DHT22;4060;49.186;9.226;2022-08-14T13:05:58;32.60;27.00
7254;DHT22;4060;49.186;9.226;2022-08-14T13:08:31;32.70;27.10
7254;DHT22;4060;49.186;9.226;2022-08-14T13:11:01;32.70;27.10
7254;DHT22;4060;49.186;9.226;2022-08-14T13:13:34;32.80;27.00
7254;DHT22;4060;49.186;9.226;2022-08-14T13:16:05;32.80;27.00
7254;DHT22;4060;49.186;9.226;2022-08-14T13:18:36;32.80;26.90
7254;DHT22;4060;49.186;9.226;2022-08-14T13:21:12;32.90;26.90
7254;DHT22;4060;49.186;9.226;2022-08-14T13:23:43;32.90;26.80
7254;DHT22;4060;49.186;9.226;2022-08-14T13:26:14;33.00;26.80
7254;DHT22;4060;49.186;9.226;2022-08-14T13:28:45;33.00;26.70
7254;DHT22;4060;49.186;9.226;2022-08-14T13:31:16;33.00;26.70
7254;DHT22;4060;49.186;9.226;2022-08-14T13:33:49;33.10;26.60
7254;DHT22;4060;49.186;9.226;2022-08-14T13:36:18;33.10;26.60
7254;DHT22;4060;49.186;9.226;2022-08-14T13:38:50;33.10;26.50
7254;DHT22;4060;49.186;9.226;2022-08-14T13:41:21;33.20;26.50
7254;DHT22;4060;49.186;9.226;2022-08-14T13:43:50;33.20;26.40
7254;DHT22;4060;49.186;9.226;2022-08-14T13:46:19;33.30;26.40
7254;DHT22;4060;49.186;9.226;2022-08-14T13:48:48;33.30;26.40
7254;DHT22;4060;49.186;9.226;2022-08-14T13:51:22;33.30;26.30
7254;DHT22;4060;49.186;9.226;2022-08-14T13:53:55;33.30;26.20
7254;DHT22;4060;49.186;9.226;2022-08-14T13:56:27;33.30;26.20
7254;DHT22;4060;49.186;9.226;2022-08-14T13:58:57;33.40;26.30
7254;DHT22;4060;49.186;9.226;2022-08-14T14:01:27;33.40;26.30
7254;DHT22;4060;49.186;9.226;2022-08-14T14:04:02;33.40;26.20
7254;DHT22;4060;49.186;9.226;2022-08-14T14:06:33;33.50;26.20
7254;DHT22;4060;49.186;9.226;2022-08-14T14:09:04;33.50;26.20
7254;DHT22;4060;49.186;9.226;2022-08-14T14:11:36;33.50;26.20
7254;DHT22;4060;49.186;9.226;2022-08-14T14:14:05;33.50;26.20
7254;DHT22;4060;49.186;9.226;2022-08-14T14:16:35;33.50;26.10
7254;DHT22;4060;49.186;9.226;2022-08-14T14:19:05;33.60;26.10
7254;DHT22;4060;49.186;9.226;2022-08-14T14:21:34;33.60;26.10
7254;DHT22;4060;49.186;9.226;2022-08-14T14:24:07;33.60;26.10
7254;DHT22;4060;49.186;9.226;2022-08-14T14:26:36;33.70;26.20
7254;DHT22;4060;49.186;9.226;2022-08-14T14:29:06;33.70;26.20
7254;DHT22;4060;49.186;9.226;2022-08-14T14:31:37;33.70;26.10
7254;DHT22;4060;49.186;9.226;2022-08-14T14:34:08;33.70;26.10
7254;DHT22;4060;49.186;9.226;2022-08-14T14:36:38;33.70;26.50
7254;DHT22;4060;49.186;9.226;2022-08-14T14:39:09;33.70;26.00
7254;DHT22;4060;49.186;9.226;2022-08-14T14:41:40;33.80;26.00
7254;DHT22;4060;49.186;9.226;2022-08-14T14:44:10;33.80;25.90
7254;DHT22;4060;49.186;9.226;2022-08-14T14:46:42;33.80;25.80
7254;DHT22;4060;49.186;9.226;2022-08-14T14:49:17;33.80;25.80
7254;DHT22;4060;49.186;9.226;2022-08-14T14:51:47;33.80;25.80
7254;DHT22;4060;49.186;9.226;2022-08-14T14:54:20;33.80;25.70
7254;DHT22;4060;49.186;9.226;2022-08-14T14:56:50;33.90;25.80
7254;DHT22;4060;49.186;9.226;2022-08-14T14:59:20;33.80;25.70
7254;DHT22;4060;49.186;9.226;2022-08-14T15:01:50;33.90;25.70
7254;DHT22;4060;49.186;9.226;2022-08-14T15:04:22;33.90;25.70
7254;DHT22;4060;49.186;9.226;2022-08-14T15:06:52;33.90;25.60
7254;DHT22;4060;49.186;9.226;2022-08-14T15:09:22;33.90;25.60
7254;DHT22;4060;49.186;9.226;2022-08-14T15:11:52;33.90;25.60
7254;DHT22;4060;49.186;9.226;2022-08-14T15:14:23;33.90;25.60
7254;DHT22;4060;49.186;9.226;2022-08-14T15:16:52;34.00;25.60
7254;DHT22;4060;49.186;9.226;2022-08-14T15:19:22;34.00;25.60
7254;DHT22;4060;49.186;9.226;2022-08-14T15:21:51;34.00;25.50
7254;DHT22;4060;49.186;9.226;2022-08-14T15:24:23;34.00;25.90
7254;DHT22;4060;49.186;9.226;2022-08-14T15:26:52;34.00;25.60
7254;DHT22;4060;49.186;9.226;2022-08-14T15:29:23;34.10;25.60
7254;DHT22;4060;49.186;9.226;2022-08-14T15:31:52;34.00;25.50
7254;DHT22;4060;49.186;9.226;2022-08-14T15:34:21;34.10;25.60
7254;DHT22;4060;49.186;9.226;2022-08-14T15:36:51;34.10;25.50
7254;DHT22;4060;49.186;9.226;2022-08-14T15:39:22;34.10;25.50
7254;DHT22;4060;49.186;9.226;2022-08-14T15:41:51;34.10;25.50
7254;DHT22;4060;49.186;9.226;2022-08-14T15:44:27;34.10;25.50
7254;DHT22;4060;49.186;9.226;2022-08-14T15:46:57;34.10;25.40
7254;DHT22;4060;49.186;9.226;2022-08-14T15:49:27;34.10;25.40
7254;DHT22;4060;49.186;9.226;2022-08-14T15:51:56;34.10;25.30
7254;DHT22;4060;49.186;9.226;2022-08-14T15:54:27;34.10;25.30
7254;DHT22;4060;49.186;9.226;2022-08-14T15:56:58;34.20;25.30
7254;DHT22;4060;49.186;9.226;2022-08-14T15:59:28;34.20;25.30
7254;DHT22;4060;49.186;9.226;2022-08-14T16:02:18;34.20;25.20
7254;DHT22;4060;49.186;9.226;2022-08-14T16:04:47;34.20;25.10
7254;DHT22;4060;49.186;9.226;2022-08-14T16:07:17;34.20;25.20
7254;DHT22;4060;49.186;9.226;2022-08-14T16:09:48;34.20;25.20
7254;DHT22;4060;49.186;9.226;2022-08-14T16:12:18;34.20;25.20
7254;DHT22;4060;49.186;9.226;2022-08-14T16:14:47;34.20;25.20
7254;DHT22;4060;49.186;9.226;2022-08-14T16:17:17;34.30;25.30
7254;DHT22;4060;49.186;9.226;2022-08-14T16:19:48;34.30;25.30
7254;DHT22;4060;49.186;9.226;2022-08-14T16:22:18;34.30;25.30
7254;DHT22;4060;49.186;9.226;2022-08-14T16:24:51;34.30;25.30
7254;DHT22;4060;49.186;9.226;2022-08-14T16:27:21;34.30;25.30
7254;DHT22;4060;49.186;9.226;2022-08-14T16:29:51;34.30;25.30